Home   Weather   Germany   Dreieich   Past weeks
Flag for Germany

Past Weather in Dreieich, Hesse, Germany — Yesterday and Last 2 Weeks

Currently: 72 °F. Sunny. (Weather station: Frankfurt-M-Flughafen Airport, Germany). See more current weather

Past Weather in Dreieich — Graph

°F

Dreieich Temperature Yesterday

Maximum temperature yesterday: 86 °F (at 5:20 pm)
Minimum temperature yesterday: 59 °F (at 5:20 am)
Average temperature yesterday: 72 °F

High & Low Weather Summary for the Past Weeks

 TemperatureHumidityPressure
High100 °F (Aug 4, 2:50 pm)94% (Aug 5, 7:50 am)30.30 "Hg (Aug 5, 7:50 am)
Low59 °F (Aug 6, 6:50 am)18% (Aug 11, 4:50 pm)29.65 "Hg (Aug 14, 8:20 pm)
Average77 °F42%30.03 "Hg
* Reported Aug 2 8:20 am — Aug 17 8:50 am, Dreieich. Weather by CustomWeather, © 2022

Note: Actual official high and low records may vary slightly from our data, if they occured in-between our weather recording intervals... More about our weather records

Dreieich Weather History for the Previous 24 Hours

Scroll right to see more
 ConditionsComfort  
Time TempWeatherWind HumidityBarometerVisibility
8:50 am
Wed, Aug 17
72 °FSunny.6 mph57%29.83 "Hg10 mi
8:20 am72 °FPassing clouds.8 mph57%29.83 "HgN/A
7:50 am70 °FPassing clouds.6 mph60%29.83 "HgN/A
7:20 am68 °FPassing clouds.6 mph60%29.83 "HgN/A
6:50 am68 °FSunny.7 mph60%29.83 "Hg10 mi
6:20 am68 °FSunny.7 mph60%29.83 "Hg10 mi
5:50 am66 °FClear.7 mph64%29.83 "Hg10 mi
5:20 am68 °FClear.6 mph60%29.83 "Hg10 mi
4:50 am68 °FClear.6 mph60%29.83 "Hg10 mi
4:20 am68 °FClear.6 mph60%29.83 "Hg10 mi
3:50 am68 °FClear.7 mph60%29.83 "Hg10 mi
2:50 am70 °FClear.8 mph57%29.83 "Hg10 mi
1:20 am70 °FPassing clouds.3 mph57%29.83 "HgN/A
12:50 am68 °FPassing clouds.5 mph64%29.83 "HgN/A
12:20 am68 °FClear.3 mph64%29.83 "Hg10 mi
11:50 pm
Tue, Aug 16
68 °FClear.5 mph64%29.83 "Hg10 mi
11:20 pm68 °FPassing clouds.3 mph64%29.83 "HgN/A
10:50 pm68 °FClear.2 mph64%29.83 "Hg10 mi
10:20 pm70 °FClear.1 mph60%29.83 "Hg10 mi
9:20 pm73 °FClear.3 mph53%29.80 "Hg10 mi
7:50 pm82 °FSunny.6 mph37%29.80 "Hg10 mi
7:20 pm84 °FPassing clouds.6 mph35%29.80 "HgN/A
6:20 pm86 °FSunny.5 mph31%29.80 "Hg10 mi
5:50 pm86 °FSunny.6 mph33%29.80 "Hg10 mi
5:20 pm86 °FSunny.5 mph33%29.80 "Hg10 mi
4:50 pm84 °FSunny.5 mph37%29.80 "Hg10 mi
4:20 pm84 °FSunny.6 mph37%29.80 "Hg10 mi
3:20 pm84 °FSunny.5 mph37%29.83 "Hg10 mi
2:20 pm82 °FSunny.3 mph40%29.83 "Hg10 mi
1:50 pm79 °FPassing clouds.6 mph45%29.83 "HgN/A
1:20 pm81 °FScattered clouds.5 mph45%29.83 "HgN/A
12:50 pm79 °FPassing clouds.8 mph48%29.83 "HgN/A
12:20 pm81 °FScattered clouds.7 mph48%29.83 "HgN/A
11:50 am77 °FPassing clouds.6 mph54%29.83 "HgN/A
11:20 am75 °FPassing clouds.8 mph57%29.83 "HgN/A
10:50 am75 °FSunny.3 mph57%29.83 "Hg10 mi
10:20 am73 °FMild.3 mph61%29.83 "HgN/A
Weather by CustomWeather, © 2022

See weather overview